Petit Parcours RAID USCD ROYAL BIG'IN le 13/03/2016

Recherche par Dossard : par Nom : par Club :

Place Dossard Nom Prenom Cat. Pl. Cat. Temps Club Sexe
1 618 TROMPETTE Pascal SE 1 01:34:25 M
2 626 LEFEVRE Valentin SE 2 01:40:18 M
3 613 THOMASI JOEL V2 1 01:40:19 FR MORNE PITAULT M
4 627 LEFEVRE Hervé V2 2 01:40:36 M
5 504 AUSTER Xavier V1 1 01:42:05 athletique club saleen M
6 566 LECLERC Simon SE 3 01:42:32 M
7 579 MALEAU FRANCK V2 3 01:42:41 LES BAROUDEURS M
8 511 BERNARD Patrick SE 4 01:43:42 Winner team M
9 524 CORTINOVIS Olivier V1 2 01:46:50 M
10 620 VARISOT Fabrice SE 5 01:47:29 ASRFO972 M
11 617 TROMPETTE Frédéric SE 6 01:49:45 M
12 562 LAHELY FJT CYCAS Mathieu SE 7 01:49:53 FJT CYCAS M
13 628 ARFI Laurent SE 8 01:51:01 M
14 533 DROYEN Thierry V1 3 01:52:19 M
15 616 THOMASI José V3 1 01:52:42 FR MORNE PITAULT M
16 525 CYRIL Valčre V2 4 01:52:51 M
17 629 LABINSKY RODOLPHE V2 5 01:55:48 M
18 595 LOY Cédric SE 9 01:56:05 M
19 614 TINAS Dominique V1 4 01:57:01 SAMRITAINE TEAM TRAIL M
20 514 BOULOT Benoit V2 6 01:57:01 SAMARITAINE TEAM TRAIL/US ROBERT M
21 555 JEAN-MARIE-DESIREE Alfred V2 7 01:57:02 Mirsa loisirs M
22 630 MENIR FRANCK V1 5 01:57:04 M
23 560 KERMOISON Alex V2 8 01:57:46 AMCF M
24 594 PALMIER Rosalyn SE 10 01:58:02 CTR M
25 508 BELAY Marie Christine SE 1 01:58:17 FR MORNE PITAULT F
26 523 CORLET Guy George V2 9 01:58:18 M
27 528 DELPEU Vincent V1 6 01:58:21 M
28 539 GADENNE Matthieu SE 11 01:59:19 M
29 564 LAULO Olivier SE 12 02:00:39 USCD M
30 506 BAZABAS Neferti V1 1 02:00:54 F
31 569 LERY Eddy V1 7 02:01:08 Tchimbe raid M
32 568 LEOPOLDIE Patrice SE 13 02:02:00 M
33 611 TEVENET-BAH Sandrine V1 2 02:02:48 RSMAM F
34 542 GITTON Gerard V3 2 02:02:53 TCHIMBE RAID M
35 585 MERTON Frédéric V1 8 02:03:11 M
36 597 PIMPY Jean-albert V1 9 02:04:27 AMCF M
37 601 QUIQUELY Désir V2 10 02:04:46 ASRFO972 M
38 612 THEGAT Steve SE 14 02:05:32 golden star M
39 502 ARICAT Rose-adele V1 3 02:05:54 F
40 536 AGNOLY Marc V2 11 02:06:22 M
41 513 BORVAL FJT CYCAS Joël V1 10 02:06:32 FJT CYCAS M
42 518 CHAPIN Désir Cyril SE 15 02:07:54 ASRFO972 M
43 510 BELLEROPHON Alex V1 11 02:09:08 manicou M
44 505 BAURAS Yannicques V2 1 02:09:16 F
45 527 DE LUCY DE FOSSARIEU Thierry V1 12 02:09:17 M
46 583 MARTOT FABRINA V1 4 02:11:42 TCHIMBE RAID F
47 573 LORENZINI Philippe V3 3 02:13:18 M
48 548 GUSTO Philippe V2 12 02:13:21 BAROUDEURS M
49 549 HANNIBAL Patrick V1 13 02:13:32 Mirsa loisirs M
50 623 VENGETO FJT CYCAS Bernard V2 13 02:14:11 FJT CYCAS M
51 544 GOUNOUMAN Claude V3 4 02:14:40 AMCF M
52 631 HOSTINGUE THERESE V2 2 02:15:26 F
53 537 FILIN Ronald SE 16 02:17:28 M
54 632 BUNOD MAX V3 5 02:17:29 M
55 609 TAUZIA Muriel V2 3 02:17:36 ASRFO972 F
56 500 ABOLIVIER Lucie SE 2 02:18:14 F
57 509 BELLANCE Denis V2 14 02:19:18 STT M
58 558 JOSEPH Chris SE 17 02:19:20 TCHIMBE RAID M
59 543 GONCU Philippe V2 15 02:21:05 M
60 603 ROUBLIQUE UBER SE 18 02:24:22 TCHIMBE RAID M
61 567 LEGIEL Jean-Marc V1 14 02:25:59 M
62 587 MONIER Gregory SE 19 02:27:17 Golden Star M
63 534 EDMOND Sandra SE 3 02:27:23 F
64 538 FILIN Jasmine SE 4 02:27:23 F
65 520 CIDALISE-MONTAISE Sandra V1 5 02:27:32 FFSE F
66 607 SERENI Ghislaine V3 1 02:29:01 A.M.C.F. F
67 565 LAURIER Gaby V1 15 02:29:02 ASRFO972 M
68 591 MUIN Murielle V1 6 02:30:04 Sud Corse Triathlon F
69 501 ADELAIDE Daniel V3 6 02:30:47 manikou M
70 517 CAZENAVE Gilles SE 20 02:31:33 MANIKOU M
71 507 BEAUNOIR Patrice V1 16 02:31:50 STT M
72 624 VILLAGEOIS Marie Louise V2 4 02:31:50 MORNE PITAULT F
73 553 JEAN Lise-anne V2 5 02:32:01 F
74 559 JULIUS Karine SE 5 02:34:13 Manikou F
75 574 LOUIS-MARIE Marc V1 17 02:34:14 M
76 600 QUIATOL Sonia V1 7 02:35:23 AMCF F
77 625 VROUST-CAVAS Sabrina SE 6 02:37:26 F
78 586 MIRANDE Jean luc SE 21 02:37:37 M
79 540 GASLONDE Béatrice SE 7 02:44:05 F
80 532 DORDONNE Bruno V1 18 02:47:41 SAMARITAINE TEAM TRAIL M
81 531 DI GERONIMO Bénédicte SE 8 02:51:00 MANIKOU F
82 621 VAUDELIN Virginie-carole V1 8 02:51:40 F
83 596 PAUL-JOSEPH Sandrine SE 9 02:52:30 F
84 561 LACROSSE Karyn V1 9 02:59:22 F
85 605 SAIZ Juan JU 1 03:00:12 M
86 503 AUBERY Stephanie V1 10 03:03:05 F
87 516 CARATALA Jean Marie V2 16 03:03:57 M
88 521 CINNA Mireille V1 11 03:03:57 SAM HORIZON F
89 557 JEREMIE Tony SE 22 03:03:57 SAM HORIZON M
90 580 MANYA Martine V2 6 03:04:25 F
91 622 VELAYOUDON Cindy SE 10 03:14:19 F
92 535 MARIE NELY Nadine V2 7 03:17:29 MORNE PITAULT F
93 581 MARIE-SAINTE DAVID V1 19 03:23:02 FR MORNE PITAULT M
94 598 PLEUVRY Benedicte V1 12 03:27:31 F
95 606 SAIZ Olivier V1 20 03:32:38 Club Manikou M
96 604 SAIZ Marivon V1 13 03:32:38 F
97 576 MACROIX Daniella SE 11 03:32:38 F
98 546 GROUGEARD Chrystelle V1 14 03:32:38 F
99 526 DE LUCY DE FOSSARIEU Helene V1 15 03:34:09 F
100 541 GIARD Delphine V1 16 03:34:43 F
101 512 BONFEUILLE Chantal V1 17 03:39:56 F
102 590 MUDARD Martine Corinne V1 18 03:40:41 F
103 519 CHATENEY-RIVAUDAY Béatrice V2 8 03:40:41 ASRFO972 F
104 563 LANCLAS Marielle V1 19 03:43:21 AMCF/TLT972 F
105 584 MAURICE Manuela V1 20 03:43:21 amcf F
106 619 VANITOU Sylvette V2 9 03:43:22 F
107 556 JEANNE Tania V1 21 03:43:22 AMCF F
108 530 DENIS Charles V2 17 03:43:22 AMCF M
109 575 LUXIN LUCILE SE 12 04:00:31 TCHIMBE RAID F
110 522 CLERY Helene V1 22 04:07:15 F
111 589 MOULANIER Magali V2 10 04:07:16 Manikou F
112 554 JEAN BAHLIT Veronique V3 2 04:07:17 F
113 593 OLIMPA Hugues V2 18 04:07:17 M
114 572 LOBAS Dominique V1 23 04:52:27 F